Time;durP1;ratioP1;P1;durP2;ratioP2;P2;SDS_P1;SDS_P2;PMS_P1;PMS_P2;Temp;Humidity;BMP_temperature;BMP_pressure;BME280_temperature;BME280_humidity;BME280_pressure;Samples;Min_cycle;Max_cycle;Signal;HPM_P1;HPM_P2
2023/02/02 00:00:35;;;;;;;16.17;2.60;;;7.60;99.90;;;;;;5053073;28;20533;-78
2023/02/02 00:03:01;;;;;;;21.47;3.40;;;7.60;99.90;;;;;;5053216;28;20116;-80
2023/02/02 00:05:27;;;;;;;21.83;4.03;;;7.60;99.90;;;;;;5051479;28;20088;-80
2023/02/02 00:07:52;;;;;;;23.53;4.77;;;7.60;99.90;;;;;;5035589;28;20029;-80
2023/02/02 00:10:18;;;;;;;20.47;4.27;;;7.60;99.90;;;;;;5052152;28;20025;-80
2023/02/02 00:12:43;;;;;;;20.83;3.77;;;7.60;99.90;;;;;;5052662;28;20190;-80
2023/02/02 00:15:09;;;;;;;21.27;4.33;;;7.70;99.90;;;;;;5068473;28;20461;-80
2023/02/02 00:17:35;;;;;;;12.63;2.73;;;7.70;99.90;;;;;;5053281;28;20025;-81
2023/02/02 00:20:00;;;;;;;24.83;3.83;;;7.70;99.90;;;;;;5051638;28;20021;-80
2023/02/02 00:22:26;;;;;;;18.23;3.70;;;7.70;99.90;;;;;;5051657;28;20064;-80
2023/02/02 00:24:52;;;;;;;16.63;3.57;;;7.60;99.90;;;;;;5068494;28;20033;-80
2023/02/02 00:27:18;;;;;;;22.60;4.50;;;7.70;99.90;;;;;;5049401;28;20036;-80
2023/02/02 00:29:44;;;;;;;24.57;3.93;;;7.70;99.90;;;;;;5021786;28;20029;-80
2023/02/02 00:32:10;;;;;;;18.63;4.07;;;7.70;99.90;;;;;;5068337;28;20045;-81
2023/02/02 00:34:35;;;;;;;24.87;4.77;;;7.70;99.90;;;;;;5051935;28;20033;-80
2023/02/02 00:37:01;;;;;;;20.87;4.40;;;7.80;99.90;;;;;;5051353;28;20094;-80
2023/02/02 00:39:27;;;;;;;20.00;4.03;;;7.80;99.90;;;;;;5051368;28;20056;-80
2023/02/02 00:41:53;;;;;;;23.90;3.10;;;7.80;99.90;;;;;;5045888;28;20053;-81
2023/02/02 00:47:03;;;;;;;27.25;3.70;;;7.80;99.90;;;;;;5032221;28;20102;-81
2023/02/02 00:49:28;;;;;;;24.33;4.83;;;7.80;99.90;;;;;;5039453;28;20060;-81
2023/02/02 00:51:55;;;;;;;15.40;3.03;;;7.80;99.90;;;;;;5054027;28;20060;-81
2023/02/02 00:54:20;;;;;;;17.03;3.07;;;7.80;99.90;;;;;;5055851;28;20022;-80
2023/02/02 00:56:46;;;;;;;26.63;4.80;;;7.80;99.90;;;;;;5034528;28;20029;-80
2023/02/02 00:59:12;;;;;;;19.43;3.70;;;7.80;99.90;;;;;;5069798;28;20037;-80
2023/02/02 01:01:38;;;;;;;27.10;4.07;;;7.90;99.90;;;;;;5055269;28;20041;-80
2023/02/02 01:04:04;;;;;;;21.33;4.13;;;7.80;99.90;;;;;;5053762;28;20029;-80
2023/02/02 01:06:29;;;;;;;22.17;3.93;;;7.90;99.90;;;;;;5072113;28;20061;-80
2023/02/02 01:08:55;;;;;;;24.53;3.43;;;7.90;99.90;;;;;;5052658;28;20033;-80
2023/02/02 01:11:21;;;;;;;14.77;2.67;;;7.90;99.90;;;;;;5019027;28;20136;-80
2023/02/02 01:13:46;;;;;;;13.07;2.33;;;7.90;99.90;;;;;;5035685;28;20369;-80
2023/02/02 01:16:12;;;;;;;17.50;3.53;;;7.90;99.90;;;;;;5019949;28;20525;-79
2023/02/02 01:18:38;;;;;;;18.00;2.83;;;7.90;99.90;;;;;;5036154;28;20039;-79
2023/02/02 01:21:06;;;;;;;15.17;3.47;;;7.80;99.90;;;;;;5037058;28;20381;-80
2023/02/02 01:23:35;;;;;;;18.07;2.70;;;7.80;99.90;;;;;;5043027;28;20035;-80
2023/02/02 01:26:04;;;;;;;22.40;3.33;;;7.90;99.90;;;;;;5055133;28;20017;-80
2023/02/02 01:28:29;;;;;;;13.83;2.37;;;7.80;99.90;;;;;;5049710;28;20067;-80
2023/02/02 01:30:56;;;;;;;17.33;3.17;;;7.80;99.90;;;;;;5034487;28;20132;-80
2023/02/02 01:33:22;;;;;;;20.30;3.20;;;7.80;99.90;;;;;;5036115;28;20029;-80
2023/02/02 01:35:50;;;;;;;20.67;3.77;;;7.80;99.90;;;;;;5034171;28;20041;-80
2023/02/02 01:38:17;;;;;;;14.23;4.23;;;7.70;99.90;;;;;;5034933;28;20028;-80
2023/02/02 01:40:48;;;;;;;21.97;4.37;;;7.70;99.90;;;;;;5019309;28;20034;-80
2023/02/02 01:43:23;;;;;;;24.20;3.67;;;7.70;99.90;;;;;;5034283;28;20027;-80
2023/02/02 01:45:50;;;;;;;22.20;3.23;;;7.70;99.90;;;;;;5034314;28;20429;-80
2023/02/02 01:48:29;;;;;;;20.43;4.57;;;7.70;99.90;;;;;;5041460;28;20104;-80
2023/02/02 01:51:00;;;;;;;14.17;3.40;;;7.60;99.90;;;;;;5055731;28;20029;-80
2023/02/02 01:53:28;;;;;;;17.73;3.80;;;7.70;99.90;;;;;;5055446;28;20472;-80
2023/02/02 01:55:54;;;;;;;19.40;3.00;;;7.70;99.90;;;;;;5038038;28;20076;-79
2023/02/02 01:58:29;;;;;;;22.37;3.40;;;7.60;99.90;;;;;;5035509;28;20040;-79
2023/02/02 02:00:54;;;;;;;19.23;3.77;;;7.60;99.90;;;;;;5034645;28;20536;-80
2023/02/02 02:03:25;;;;;;;14.27;2.90;;;7.60;99.90;;;;;;5025444;28;20021;-79
2023/02/02 02:05:55;;;;;;;19.90;3.30;;;7.60;99.90;;;;;;5054852;28;20029;-79
2023/02/02 02:08:25;;;;;;;17.87;2.53;;;7.60;99.90;;;;;;5045618;28;20386;-80
2023/02/02 02:10:51;;;;;;;16.00;2.17;;;7.50;99.90;;;;;;5033968;28;20033;-79
2023/02/02 02:13:19;;;;;;;10.97;2.03;;;7.50;99.90;;;;;;5034285;28;20029;-80
2023/02/02 02:16:19;;;;;;;9.97;2.07;;;7.50;99.90;;;;;;5033486;28;20025;-80
2023/02/02 02:18:53;;;;;;;14.53;2.57;;;7.50;99.90;;;;;;5034296;28;20417;-79
2023/02/02 02:27:32;;;;;;;11.13;1.87;;;7.40;99.90;;;;;;5034999;28;20405;-80
2023/02/02 02:30:19;;;;;;;10.37;1.67;;;7.40;99.90;;;;;;5036954;28;20028;-80
2023/02/02 02:32:57;;;;;;;11.43;1.90;;;7.40;99.90;;;;;;5035847;28;20052;-79
2023/02/02 02:36:16;;;;;;;11.77;1.60;;;7.40;99.90;;;;;;5032107;28;20038;-79
2023/02/02 02:38:56;;;;;;;12.07;1.80;;;7.30;99.90;;;;;;5023865;28;20053;-79
2023/02/02 02:41:47;;;;;;;9.00;2.10;;;7.30;99.90;;;;;;5033417;28;20033;-79
2023/02/02 02:44:15;;;;;;;13.60;2.00;;;7.30;99.90;;;;;;5034612;28;20053;-79
2023/02/02 02:46:42;;;;;;;13.37;1.83;;;7.30;99.90;;;;;;5032946;28;20029;-79
2023/02/02 02:49:09;;;;;;;12.60;2.67;;;7.30;99.90;;;;;;5054296;28;20081;-79
2023/02/02 02:51:42;;;;;;;11.57;2.50;;;7.30;99.90;;;;;;5069641;28;20171;-79
2023/02/02 02:54:10;;;;;;;15.33;2.10;;;7.30;99.90;;;;;;5053339;28;20029;-79
2023/02/02 02:57:03;;;;;;;14.50;2.40;;;7.30;99.90;;;;;;5069923;28;20040;-79
2023/02/02 02:59:31;;;;;;;17.73;2.60;;;7.30;99.90;;;;;;5054242;28;20094;-79
2023/02/02 03:02:15;;;;;;;10.70;2.07;;;7.30;99.90;;;;;;5045554;28;20105;-79
2023/02/02 03:04:53;;;;;;;6.75;1.95;;;7.30;99.90;;;;;;5048545;28;20029;-78
2023/02/02 03:07:33;;;;;;;12.40;3.40;;;7.30;99.90;;;;;;5052353;28;20509;-78
2023/02/02 03:10:01;;;;;;;10.87;2.97;;;7.30;99.90;;;;;;5054493;28;20049;-79
2023/02/02 03:12:26;;;;;;;11.27;2.10;;;7.30;99.90;;;;;;5052475;28;20033;-78
2023/02/02 03:14:52;;;;;;;12.63;2.40;;;7.30;99.90;;;;;;5054145;28;20473;-79
2023/02/02 03:17:18;;;;;;;15.87;2.50;;;7.30;99.90;;;;;;5052476;28;20029;-79
2023/02/02 03:19:43;;;;;;;16.13;2.80;;;7.30;99.90;;;;;;5051336;28;20044;-80
2023/02/02 03:22:09;;;;;;;8.10;1.77;;;7.30;99.90;;;;;;5038945;28;20481;-80
2023/02/02 03:24:34;;;;;;;10.17;2.13;;;7.30;99.90;;;;;;5055170;28;20029;-79
2023/02/02 03:27:00;;;;;;;14.00;2.63;;;7.30;99.90;;;;;;5069133;28;20036;-79
2023/02/02 03:29:27;;;;;;;18.20;3.57;;;7.30;99.90;;;;;;5052349;28;20033;-79
2023/02/02 03:31:52;;;;;;;11.53;2.87;;;7.30;99.90;;;;;;5052221;28;20091;-79
2023/02/02 03:34:18;;;;;;;15.50;4.13;;;7.30;99.90;;;;;;5068854;28;20036;-80
2023/02/02 03:36:44;;;;;;;15.47;3.40;;;7.30;99.90;;;;;;5033927;28;20084;-79
2023/02/02 03:39:09;;;;;;;15.27;2.90;;;7.30;99.90;;;;;;5052380;28;20029;-79
2023/02/02 03:41:35;;;;;;;15.80;2.93;;;7.30;99.90;;;;;;5052350;28;20531;-79
2023/02/02 03:44:00;;;;;;;12.77;3.20;;;7.30;99.90;;;;;;5053398;28;20107;-79
2023/02/02 03:46:26;;;;;;;17.40;3.67;;;7.30;99.90;;;;;;5052387;28;20033;-79
2023/02/02 03:48:52;;;;;;;18.27;3.47;;;7.30;99.90;;;;;;5053726;28;20450;-79
2023/02/02 03:51:17;;;;;;;21.30;4.93;;;7.30;99.90;;;;;;5035525;28;20112;-79
2023/02/02 03:53:43;;;;;;;20.80;4.13;;;7.40;99.90;;;;;;5033717;28;20025;-79
2023/02/02 03:56:09;;;;;;;15.97;3.40;;;7.40;99.90;;;;;;5015658;28;20128;-79
2023/02/02 03:58:35;;;;;;;26.03;3.87;;;7.40;99.90;;;;;;5032039;28;20037;-79
2023/02/02 04:01:06;;;;;;;21.67;3.80;;;7.40;99.90;;;;;;5015154;28;20029;-79
2023/02/02 04:03:32;;;;;;;16.17;4.10;;;7.40;99.90;;;;;;5032183;28;20500;-79
2023/02/02 04:05:59;;;;;;;21.37;3.80;;;7.50;99.90;;;;;;5050898;28;20067;-80
2023/02/02 04:08:24;;;;;;;24.07;4.13;;;7.50;99.90;;;;;;5068068;28;20052;-80
2023/02/02 04:10:50;;;;;;;27.00;4.20;;;7.50;99.90;;;;;;5051889;28;20029;-80
2023/02/02 04:13:16;;;;;;;26.53;4.40;;;7.60;99.90;;;;;;5050686;28;20036;-80
2023/02/02 04:15:41;;;;;;;19.57;3.50;;;7.60;99.90;;;;;;5051989;28;20055;-80
2023/02/02 04:18:07;;;;;;;18.67;4.03;;;7.60;99.90;;;;;;5050880;28;20033;-80
2023/02/02 04:20:32;;;;;;;29.93;4.43;;;7.70;99.90;;;;;;5053896;28;20132;-80
2023/02/02 04:22:58;;;;;;;21.47;3.97;;;7.70;99.90;;;;;;5034040;28;20036;-80
2023/02/02 04:25:24;;;;;;;20.17;3.47;;;7.70;99.90;;;;;;5052925;28;20028;-80
2023/02/02 04:27:49;;;;;;;21.80;3.83;;;7.70;99.90;;;;;;5017915;28;20031;-80
2023/02/02 04:30:16;;;;;;;18.30;3.80;;;7.70;99.90;;;;;;5052692;28;20087;-80
2023/02/02 04:32:41;;;;;;;20.93;3.57;;;7.80;99.90;;;;;;5051599;28;20041;-80
2023/02/02 04:35:07;;;;;;;17.47;3.77;;;7.80;99.90;;;;;;5018189;28;20029;-80
2023/02/02 04:37:33;;;;;;;21.93;4.17;;;7.80;99.90;;;;;;5068670;28;20105;-80
2023/02/02 04:39:59;;;;;;;25.83;3.87;;;7.80;99.90;;;;;;5054294;28;20477;-80
2023/02/02 04:42:24;;;;;;;26.47;3.97;;;7.80;99.90;;;;;;5056111;28;20033;-80
2023/02/02 04:44:50;;;;;;;23.90;3.10;;;7.80;99.90;;;;;;5055439;28;20389;-80
2023/02/02 04:47:15;;;;;;;18.37;3.37;;;7.90;99.90;;;;;;5038946;28;20477;-79
2023/02/02 04:49:41;;;;;;;21.97;3.93;;;7.90;99.90;;;;;;5054086;28;20029;-79
2023/02/02 04:52:07;;;;;;;20.53;3.70;;;7.90;99.90;;;;;;5055586;28;20041;-80
2023/02/02 04:54:33;;;;;;;12.97;3.27;;;7.90;99.90;;;;;;5056151;28;20087;-80
2023/02/02 04:56:58;;;;;;;18.10;3.20;;;7.90;99.90;;;;;;5035665;28;20444;-79
2023/02/02 04:59:27;;;;;;;21.67;3.13;;;7.90;99.90;;;;;;5037070;28;20497;-79
2023/02/02 05:01:53;;;;;;;14.83;3.03;;;7.90;99.90;;;;;;5036522;28;20065;-80
2023/02/02 05:04:18;;;;;;;23.97;3.60;;;8.00;99.90;;;;;;5035798;28;20069;-80
2023/02/02 05:06:44;;;;;;;22.87;3.53;;;8.00;99.90;;;;;;5019549;28;20056;-82
2023/02/02 05:09:10;;;;;;;15.73;3.40;;;8.00;99.90;;;;;;5035174;28;20033;-81
2023/02/02 05:11:37;;;;;;;18.83;3.57;;;8.00;99.90;;;;;;5035090;28;20573;-81
2023/02/02 05:14:04;;;;;;;18.60;2.93;;;8.00;99.90;;;;;;5019950;28;20448;-81
2023/02/02 05:16:29;;;;;;;23.90;3.20;;;8.00;99.90;;;;;;5056447;28;20079;-80
2023/02/02 05:18:58;;;;;;;26.63;4.30;;;8.10;99.90;;;;;;5038477;28;20025;-80
2023/02/02 05:21:23;;;;;;;19.37;3.50;;;8.00;99.90;;;;;;5054887;28;20017;-80
2023/02/02 05:23:49;;;;;;;18.40;3.10;;;8.10;99.90;;;;;;5049867;28;20508;-80
2023/02/02 05:26:18;;;;;;;20.80;3.40;;;8.10;99.90;;;;;;5037433;28;20025;-81
2023/02/02 05:28:44;;;;;;;22.03;4.03;;;8.10;99.90;;;;;;5054152;28;20498;-80
2023/02/02 05:31:09;;;;;;;20.17;4.23;;;8.10;99.90;;;;;;5054827;28;20029;-81
2023/02/02 05:33:35;;;;;;;18.80;3.80;;;8.10;99.90;;;;;;5033906;28;20482;-82
2023/02/02 05:36:01;;;;;;;20.43;3.30;;;8.10;99.90;;;;;;5041088;28;20028;-80
2023/02/02 05:38:27;;;;;;;27.53;3.87;;;8.10;99.90;;;;;;5018597;28;20378;-81
2023/02/02 05:40:52;;;;;;;21.37;4.27;;;8.10;99.90;;;;;;5018463;28;20103;-81
2023/02/02 05:43:18;;;;;;;16.87;3.23;;;8.20;99.90;;;;;;5028194;28;20140;-80
2023/02/02 05:45:44;;;;;;;16.17;2.63;;;8.10;99.90;;;;;;5026621;28;20037;-80
2023/02/02 05:48:13;;;;;;;16.83;2.93;;;8.10;99.90;;;;;;5016629;28;20033;-81
2023/02/02 05:50:41;;;;;;;20.20;3.70;;;8.10;99.90;;;;;;5015937;28;20040;-81
2023/02/02 05:53:08;;;;;;;17.60;3.73;;;8.20;99.90;;;;;;5033374;28;20482;-81
2023/02/02 05:55:33;;;;;;;18.53;3.63;;;8.10;99.90;;;;;;5036650;28;20397;-80
2023/02/02 05:57:59;;;;;;;25.27;3.80;;;8.20;99.90;;;;;;5037691;28;20076;-80
2023/02/02 06:00:25;;;;;;;20.53;3.10;;;8.20;99.90;;;;;;5017657;28;20551;-80
2023/02/02 06:02:50;;;;;;;22.90;3.70;;;8.20;99.90;;;;;;5039197;28;20025;-80
2023/02/02 06:05:16;;;;;;;16.23;3.37;;;8.20;99.90;;;;;;5054741;28;20085;-80
2023/02/02 06:07:41;;;;;;;16.97;4.33;;;8.20;99.90;;;;;;5048201;28;20516;-80
2023/02/02 06:10:07;;;;;;;19.43;3.80;;;8.20;99.90;;;;;;5059488;28;20060;-80
2023/02/02 06:12:33;;;;;;;18.17;3.97;;;8.20;99.90;;;;;;5073815;28;20044;-80
2023/02/02 06:14:59;;;;;;;24.27;3.47;;;8.20;99.90;;;;;;5026492;28;20511;-80
2023/02/02 06:17:25;;;;;;;24.27;4.30;;;8.20;99.90;;;;;;5042441;28;20506;-80
2023/02/02 06:19:54;;;;;;;24.70;3.60;;;8.20;99.90;;;;;;5035598;28;20478;-80
2023/02/02 06:22:20;;;;;;;21.47;3.60;;;8.20;99.90;;;;;;5055146;28;20037;-81
2023/02/02 06:24:45;;;;;;;18.00;3.10;;;8.20;99.90;;;;;;5053379;28;20032;-81
2023/02/02 06:27:11;;;;;;;17.83;3.20;;;8.20;99.90;;;;;;5054999;28;20049;-81
2023/02/02 06:29:37;;;;;;;22.13;4.57;;;8.20;99.90;;;;;;5036064;28;20541;-82
2023/02/02 06:32:02;;;;;;;17.37;3.50;;;8.20;99.90;;;;;;5053811;28;20043;-85
2023/02/02 06:34:28;;;;;;;17.30;3.27;;;8.20;99.90;;;;;;5036833;28;20029;-86
2023/02/02 06:36:54;;;;;;;13.03;3.83;;;8.20;99.90;;;;;;5045918;28;20025;-85
2023/02/02 06:39:19;;;;;;;21.63;3.43;;;8.20;99.90;;;;;;5044013;28;20523;-85
2023/02/02 06:41:47;;;;;;;19.83;3.50;;;8.20;99.90;;;;;;5025642;28;20033;-85
2023/02/02 06:44:14;;;;;;;14.93;2.90;;;8.20;99.90;;;;;;5042465;28;20598;-84
2023/02/02 06:46:40;;;;;;;20.50;3.43;;;8.20;99.90;;;;;;5035500;28;20025;-85
2023/02/02 06:49:06;;;;;;;17.40;2.97;;;8.20;99.90;;;;;;5067899;28;20107;-86
2023/02/02 06:51:31;;;;;;;16.80;3.53;;;8.20;99.90;;;;;;5057096;28;20040;-86
2023/02/02 06:53:57;;;;;;;19.30;3.70;;;8.10;99.90;;;;;;5057387;28;20025;-86
2023/02/02 06:56:22;;;;;;;14.87;3.53;;;8.20;99.90;;;;;;5057246;28;20032;-85
2023/02/02 06:58:48;;;;;;;18.23;2.77;;;8.20;99.90;;;;;;5057236;28;20484;-86
2023/02/02 07:01:14;;;;;;;20.20;3.43;;;8.10;99.90;;;;;;5057199;28;20127;-85
2023/02/02 07:03:40;;;;;;;16.40;2.70;;;8.10;99.90;;;;;;5074614;28;20033;-86
2023/02/02 07:06:24;;;;;;;18.53;3.90;;;8.10;99.90;;;;;;5073178;28;20052;-86
2023/02/02 07:08:50;;;;;;;21.45;3.83;;;8.10;99.90;;;;;;5073262;28;20044;-85
2023/02/02 07:11:17;;;;;;;13.63;2.83;;;8.10;99.90;;;;;;5074157;28;20033;-86
2023/02/02 07:13:47;;;;;;;19.10;3.03;;;8.10;99.90;;;;;;5074465;28;20025;-86
2023/02/02 07:16:14;;;;;;;21.97;3.20;;;8.10;99.90;;;;;;5075760;28;20025;-87
2023/02/02 07:18:41;;;;;;;18.77;3.03;;;8.10;99.90;;;;;;5060078;28;20025;-94
2023/02/02 07:21:08;;;;;;;17.00;3.30;;;8.00;99.90;;;;;;5061533;28;20033;-94
2023/02/02 07:23:34;;;;;;;15.20;3.40;;;8.00;99.90;;;;;;5058061;28;20128;-94
2023/02/02 07:26:05;;;;;;;21.47;3.17;;;8.00;99.90;;;;;;5056698;28;20484;-85
2023/02/02 07:28:30;;;;;;;20.57;3.90;;;8.00;99.90;;;;;;5053998;28;20029;-83
2023/02/02 07:30:56;;;;;;;22.43;3.60;;;8.00;99.90;;;;;;5052694;28;20030;-83
2023/02/02 07:33:22;;;;;;;17.73;4.07;;;8.00;99.90;;;;;;5038122;28;20397;-83
2023/02/02 07:35:48;;;;;;;17.53;4.00;;;7.90;99.90;;;;;;5045810;28;20124;-82
2023/02/02 07:38:13;;;;;;;15.07;3.60;;;7.90;99.90;;;;;;5059911;28;20052;-82
2023/02/02 07:40:39;;;;;;;29.10;4.67;;;7.90;99.90;;;;;;5052701;28;20029;-84
2023/02/02 07:43:04;;;;;;;20.07;4.67;;;7.90;99.90;;;;;;5053397;28;20033;-83
2023/02/02 07:45:30;;;;;;;24.07;5.33;;;7.90;99.90;;;;;;5052257;28;20056;-83
2023/02/02 07:47:57;;;;;;;20.53;4.47;;;7.90;99.90;;;;;;5052239;28;20108;-83
2023/02/02 07:50:24;;;;;;;15.17;3.60;;;7.90;99.90;;;;;;5035433;28;20029;-83
2023/02/02 07:52:50;;;;;;;18.07;4.13;;;7.90;99.90;;;;;;5052434;28;20106;-83
2023/02/02 07:55:16;;;;;;;19.73;4.47;;;7.90;99.90;;;;;;5053185;28;20029;-83
2023/02/02 07:57:41;;;;;;;20.40;4.07;;;7.90;99.90;;;;;;5051897;28;20024;-83
2023/02/02 08:00:08;;;;;;;27.07;4.97;;;7.80;99.90;;;;;;5053326;28;21218;-83
2023/02/02 08:02:34;;;;;;;22.03;4.47;;;7.80;99.90;;;;;;5052284;28;20035;-83
2023/02/02 08:05:00;;;;;;;20.80;4.70;;;7.80;99.90;;;;;;5053240;28;20025;-82
2023/02/02 08:07:25;;;;;;;24.47;4.30;;;7.80;99.90;;;;;;5051882;28;20056;-84
2023/02/02 08:09:51;;;;;;;18.70;3.83;;;7.90;99.90;;;;;;5034869;28;20053;-83
2023/02/02 08:12:19;;;;;;;17.50;4.50;;;7.80;99.90;;;;;;5035597;28;20134;-83
2023/02/02 08:14:46;;;;;;;15.97;4.43;;;7.90;99.90;;;;;;5036077;28;20030;-83
2023/02/02 08:17:12;;;;;;;19.80;4.20;;;7.90;99.90;;;;;;5051793;28;20060;-83
2023/02/02 08:19:37;;;;;;;19.53;4.80;;;7.90;99.90;;;;;;5035527;28;20025;-83
2023/02/02 08:22:03;;;;;;;13.83;4.00;;;7.90;99.90;;;;;;5052253;28;20036;-83
2023/02/02 08:24:29;;;;;;;21.63;4.60;;;7.90;99.90;;;;;;5052142;28;20025;-83
2023/02/02 08:26:54;;;;;;;20.13;4.50;;;7.90;99.90;;;;;;5053448;28;20059;-83
2023/02/02 08:29:20;;;;;;;14.20;4.17;;;8.00;99.90;;;;;;5052229;28;20025;-82
2023/02/02 08:31:45;;;;;;;19.33;3.97;;;8.00;99.90;;;;;;5035249;28;20496;-83
2023/02/02 08:34:12;;;;;;;19.03;4.83;;;7.90;99.90;;;;;;5035037;28;20025;-83
2023/02/02 08:36:38;;;;;;;15.60;4.00;;;8.00;99.90;;;;;;5051769;28;20052;-83
2023/02/02 08:39:11;;;;;;;18.77;3.60;;;8.00;99.90;;;;;;5052168;28;20025;-83
2023/02/02 08:41:37;;;;;;;20.53;4.20;;;8.10;99.90;;;;;;5052048;28;20111;-83
2023/02/02 08:44:08;;;;;;;19.20;3.87;;;8.10;99.90;;;;;;5053117;28;20033;-82
2023/02/02 08:46:33;;;;;;;18.97;4.23;;;8.10;99.90;;;;;;5051861;28;20036;-82
2023/02/02 08:48:59;;;;;;;18.50;4.70;;;8.20;99.90;;;;;;5035873;28;20025;-82
2023/02/02 08:51:24;;;;;;;22.47;4.07;;;8.20;99.90;;;;;;5051509;28;20052;-82
2023/02/02 08:53:50;;;;;;;22.07;4.03;;;8.20;99.90;;;;;;5035438;28;20534;-83
2023/02/02 08:56:18;;;;;;;24.87;4.63;;;8.20;99.90;;;;;;5051937;28;20036;-82
2023/02/02 08:58:46;;;;;;;21.33;4.90;;;8.30;99.90;;;;;;5052966;28;20048;-82
2023/02/02 09:01:13;;;;;;;17.80;4.03;;;8.30;99.90;;;;;;5051821;28;20025;-83
2023/02/02 09:03:39;;;;;;;22.33;4.13;;;8.30;99.90;;;;;;5053109;28;20091;-82
2023/02/02 09:06:10;;;;;;;18.47;3.87;;;8.30;99.90;;;;;;5051383;28;20033;-82
2023/02/02 09:08:36;;;;;;;18.77;3.77;;;8.30;99.90;;;;;;5052864;28;20473;-82
2023/02/02 09:11:20;;;;;;;18.67;4.97;;;8.40;99.90;;;;;;5051427;28;20104;-83
2023/02/02 09:13:47;;;;;;;16.27;3.38;;;8.40;99.90;;;;;;5051513;28;20112;-83
2023/02/02 09:16:16;;;;;;;17.07;3.50;;;8.40;99.90;;;;;;5052948;28;20025;-82
2023/02/02 09:18:42;;;;;;;19.87;4.27;;;8.50;99.90;;;;;;5051867;28;20044;-82
2023/02/02 09:21:11;;;;;;;18.43;3.43;;;8.60;99.90;;;;;;5051236;28;20374;-82
2023/02/02 09:23:39;;;;;;;23.27;4.93;;;8.60;99.90;;;;;;5052887;28;20029;-83
2023/02/02 09:26:12;;;;;;;24.03;3.60;;;8.60;99.90;;;;;;5053779;28;20029;-82
2023/02/02 09:28:40;;;;;;;16.25;3.10;;;8.70;99.90;;;;;;5055392;28;20025;-82
2023/02/02 09:31:05;;;;;;;19.63;3.50;;;8.70;99.90;;;;;;5055928;28;20082;-82
2023/02/02 09:33:31;;;;;;;20.37;3.07;;;8.80;99.90;;;;;;5055443;28;20029;-83
2023/02/02 09:36:13;;;;;;;21.83;3.63;;;8.70;99.90;;;;;;5055156;28;20033;-82
2023/02/02 09:38:39;;;;;;;19.13;3.67;;;8.80;99.90;;;;;;5057375;28;20056;-83
2023/02/02 09:41:33;;;;;;;23.37;3.53;;;8.80;99.90;;;;;;5066662;28;20028;-82
2023/02/02 09:44:24;;;;;;;13.97;3.17;;;8.80;99.90;;;;;;5063788;28;20025;-83
2023/02/02 09:47:02;;;;;;;20.83;3.67;;;8.90;99.90;;;;;;5055236;28;20140;-82
2023/02/02 09:49:56;;;;;;;21.43;4.10;;;8.90;99.90;;;;;;5056192;28;20104;-82
2023/02/02 09:52:27;;;;;;;24.02;3.70;;;8.90;99.90;;;;;;5036069;28;20076;-82
2023/02/02 09:55:18;;;;;;;20.90;3.60;;;8.90;99.90;;;;;;5055129;28;20078;-82
2023/02/02 09:57:52;;;;;;;26.20;4.30;;;9.00;99.90;;;;;;5055833;28;20376;-82
2023/02/02 10:00:31;;;;;;;16.00;2.80;;;9.00;99.90;;;;;;5054478;28;20036;-82
2023/02/02 10:03:11;;;;;;;9.83;2.80;;;9.00;99.90;;;;;;5054261;28;20021;-82
2023/02/02 10:05:47;;;;;;;12.43;2.17;;;9.00;99.90;;;;;;5053454;28;20060;-82
2023/02/02 10:08:22;;;;;;;17.90;2.73;;;9.00;99.90;;;;;;5055545;28;20049;-82
2023/02/02 10:10:50;;;;;;;13.67;2.73;;;9.00;99.90;;;;;;5053509;28;20091;-82
2023/02/02 10:13:32;;;;;;;19.70;3.20;;;9.00;99.90;;;;;;5037627;28;20400;-82
2023/02/02 10:16:11;;;;;;;14.47;3.27;;;9.00;99.90;;;;;;5055596;28;20017;-82
2023/02/02 10:18:48;;;;;;;17.23;3.30;;;9.00;99.90;;;;;;5054279;28;20032;-82
2023/02/02 10:21:32;;;;;;;15.07;3.50;;;9.10;99.90;;;;;;5056141;28;20020;-82
2023/02/02 10:23:57;;;;;;;16.00;2.97;;;9.10;99.90;;;;;;5054004;28;20029;-82
2023/02/02 10:26:43;;;;;;;12.53;2.90;;;9.10;99.90;;;;;;5037473;28;20031;-82
2023/02/02 10:29:20;;;;;;;14.30;2.83;;;9.10;99.90;;;;;;5055115;28;20594;-81
2023/02/02 10:31:58;;;;;;;11.40;2.87;;;9.10;99.90;;;;;;5054169;28;20036;-82
2023/02/02 10:35:00;;;;;;;17.93;3.33;;;9.10;99.90;;;;;;5055298;28;20025;-82
2023/02/02 10:37:44;;;;;;;12.33;2.63;;;9.10;99.90;;;;;;5052213;28;20033;-82
2023/02/02 10:40:16;;;;;;;;;;;9.10;99.90;;;;;;5053820;28;20049;-81
2023/02/02 10:43:44;;;;;;;11.20;2.60;;;9.10;99.90;;;;;;5054048;28;19948;-82
2023/02/02 10:45:40;;;;;;;15.65;2.67;;;9.10;99.90;;;;;;5054571;28;20029;-82
2023/02/02 10:48:22;;;;;;;16.63;2.73;;;9.10;99.90;;;;;;5053799;28;20021;-82
2023/02/02 10:50:52;;;;;;;14.57;2.70;;;9.10;99.90;;;;;;5053283;28;20021;-82
2023/02/02 10:53:19;;;;;;;15.77;2.23;;;9.20;99.90;;;;;;5054461;28;20493;-82
2023/02/02 10:56:05;;;;;;;14.30;3.70;;;9.20;99.90;;;;;;5053191;28;20040;-82
2023/02/02 10:58:51;;;;;;;14.33;3.40;;;9.20;99.90;;;;;;5054152;28;20495;-81
2023/02/02 11:01:21;;;;;;;21.30;2.80;;;9.20;99.90;;;;;;5053376;28;20478;-82
2023/02/02 11:03:48;;;;;;;11.93;2.43;;;9.20;99.90;;;;;;5037086;28;20116;-83
2023/02/02 11:09:00;;;;;;;23.73;3.20;;;9.30;99.90;;;;;;5053356;28;20095;-82
2023/02/02 11:11:33;;;;;;;13.40;2.43;;;9.30;99.90;;;;;;5037339;28;20489;-81
2023/02/02 11:14:09;;;;;;;11.87;3.03;;;9.30;99.90;;;;;;5053000;28;20029;-81
2023/02/02 11:16:39;;;;;;;17.10;3.37;;;9.30;99.90;;;;;;5054111;28;20037;-81
2023/02/02 11:19:28;;;;;;;16.60;3.40;;;9.30;99.90;;;;;;5052813;28;20420;-81
2023/02/02 11:22:00;;;;;;;16.43;3.40;;;9.20;99.90;;;;;;5052867;28;20025;-81
2023/02/02 11:24:38;;;;;;;18.90;3.13;;;9.20;99.90;;;;;;5052812;28;20021;-81
2023/02/02 11:27:06;;;;;;;17.83;3.10;;;9.20;99.90;;;;;;5052609;28;20025;-81
2023/02/02 11:29:38;;;;;;;13.07;2.77;;;9.20;99.90;;;;;;5053759;28;20100;-81
2023/02/02 11:32:29;;;;;;;16.43;3.60;;;9.10;99.90;;;;;;5052603;28;20044;-81
2023/02/02 11:35:01;;;;;;;20.50;3.10;;;9.10;99.90;;;;;;5052610;28;20380;-81
2023/02/02 11:37:27;;;;;;;13.37;2.77;;;9.10;99.90;;;;;;5053193;28;20035;-81
2023/02/02 11:39:54;;;;;;;17.97;3.57;;;9.10;99.90;;;;;;5037084;28;20144;-81
2023/02/02 11:42:22;;;;;;;19.30;3.10;;;9.10;99.90;;;;;;5052535;28;20021;-81
2023/02/02 11:45:15;;;;;;;16.67;3.47;;;9.10;99.90;;;;;;5055832;28;20029;-82
2023/02/02 11:47:40;;;;;;;12.30;2.53;;;9.10;99.90;;;;;;5057636;28;20020;-81
2023/02/02 11:50:19;;;;;;;14.70;3.23;;;9.10;99.90;;;;;;5038301;28;20389;-81
2023/02/02 11:52:45;;;;;;;11.87;2.53;;;9.10;99.90;;;;;;5052553;28;20040;-81
2023/02/02 11:55:17;;;;;;;13.00;2.63;;;9.10;99.90;;;;;;5035870;28;20074;-81
2023/02/02 11:58:26;;;;;;;12.30;2.63;;;9.10;99.90;;;;;;5052340;28;20032;-82
2023/02/02 12:00:54;;;;;;;13.33;2.40;;;9.20;99.90;;;;;;5052230;28;20021;-81
2023/02/02 12:03:38;;;;;;;11.03;2.37;;;9.20;99.90;;;;;;5052298;28;20028;-81
2023/02/02 12:06:17;;;;;;;16.35;2.72;;;9.20;99.90;;;;;;5051708;28;20527;-81
2023/02/02 12:08:43;;;;;;;17.30;3.90;;;9.20;99.90;;;;;;5051849;28;20045;-82
2023/02/02 12:11:38;;;;;;;13.87;2.67;;;9.20;99.90;;;;;;5051606;28;20516;-81
2023/02/02 12:14:11;;;;;;;11.23;2.43;;;9.20;99.90;;;;;;5047806;28;20115;-81
2023/02/02 12:16:55;;;;;;;15.47;3.77;;;9.20;99.90;;;;;;5052151;28;20060;-82
2023/02/02 12:19:44;;;;;;;;;;;9.30;99.90;;;;;;5052817;28;20120;-82
2023/02/02 12:22:18;;;;;;;15.20;3.10;;;9.30;99.90;;;;;;5043477;28;19970;-81
2023/02/02 12:25:02;;;;;;;17.80;2.47;;;9.20;99.90;;;;;;5053002;28;20489;-81
2023/02/02 12:27:49;;;;;;;16.05;2.17;;;9.20;99.90;;;;;;5052552;28;20045;-81
2023/02/02 12:30:38;;;;;;;16.90;2.53;;;9.20;99.90;;;;;;5053154;28;20029;-81
2023/02/02 12:33:18;;;;;;;16.00;2.83;;;9.20;99.90;;;;;;5051686;28;20499;-82
2023/02/02 12:36:02;;;;;;;17.67;2.43;;;9.30;99.90;;;;;;5050916;28;20029;-82
2023/02/02 12:38:59;;;;;;;;;;;9.30;99.90;;;;;;5053807;28;20021;-81
2023/02/02 12:41:54;;;;;;;12.77;2.20;;;9.20;99.90;;;;;;5039370;28;19905;-82
2023/02/02 12:44:29;;;;;;;15.97;2.80;;;9.30;99.90;;;;;;5053020;28;20033;-82
2023/02/02 12:47:03;;;;;;;15.57;2.63;;;9.30;99.90;;;;;;5052526;28;20105;-81
2023/02/02 12:49:47;;;;;;;;;;;9.20;99.90;;;;;;5052758;28;20037;-81
2023/02/02 12:52:31;;;;;;;16.50;2.03;;;9.20;99.90;;;;;;5051289;28;19909;-81
2023/02/02 12:55:16;;;;;;;13.25;2.20;;;9.10;99.90;;;;;;5052110;28;20025;-81
2023/02/02 12:58:08;;;;;;;12.07;1.80;;;9.10;99.90;;;;;;5051282;28;20048;-81
2023/02/02 13:00:54;;;;;;;15.53;2.13;;;9.10;99.90;;;;;;5051750;28;20060;-81
2023/02/02 13:03:24;;;;;;;16.60;2.03;;;9.00;99.90;;;;;;5055544;28;20496;-81
2023/02/02 13:06:04;;;;;;;21.00;2.23;;;9.10;99.90;;;;;;5054611;28;20119;-81
2023/02/02 13:08:50;;;;;;;13.17;1.80;;;9.00;99.90;;;;;;5055651;28;20053;-81
2023/02/02 13:11:30;;;;;;;12.33;2.37;;;9.00;99.90;;;;;;5056805;28;20029;-81
2023/02/02 13:14:22;;;;;;;16.10;2.60;;;9.00;99.90;;;;;;5055236;28;20036;-82
2023/02/02 13:16:53;;;;;;;10.43;2.50;;;9.00;99.90;;;;;;5055479;28;20071;-82